sensor_id;sensor_type;location;lat;lon;timestamp;temperature;humidity
25280;DHT22;13225;47.804;12.116;2022-11-20T00:00:57;5.70;99.90
25280;DHT22;13225;47.804;12.116;2022-11-20T00:03:29;5.80;99.90
25280;DHT22;13225;47.804;12.116;2022-11-20T00:06:00;5.80;99.90
25280;DHT22;13225;47.804;12.116;2022-11-20T00:08:25;5.90;99.90
25280;DHT22;13225;47.804;12.116;2022-11-20T00:10:51;5.90;99.90
25280;DHT22;13225;47.804;12.116;2022-11-20T00:13:16;5.90;99.90
25280;DHT22;13225;47.804;12.116;2022-11-20T00:15:42;5.90;99.90
25280;DHT22;13225;47.804;12.116;2022-11-20T00:18:07;5.90;99.90
25280;DHT22;13225;47.804;12.116;2022-11-20T00:20:33;5.90;99.90
25280;DHT22;13225;47.804;12.116;2022-11-20T00:22:59;5.90;99.90
25280;DHT22;13225;47.804;12.116;2022-11-20T00:25:25;5.90;99.90
25280;DHT22;13225;47.804;12.116;2022-11-20T00:27:51;5.90;99.90
25280;DHT22;13225;47.804;12.116;2022-11-20T00:30:16;5.90;99.90
25280;DHT22;13225;47.804;12.116;2022-11-20T00:32:42;5.80;99.90
25280;DHT22;13225;47.804;12.116;2022-11-20T00:35:08;5.80;99.90
25280;DHT22;13225;47.804;12.116;2022-11-20T00:37:36;5.80;99.90
25280;DHT22;13225;47.804;12.116;2022-11-20T00:40:03;5.80;99.90
25280;DHT22;13225;47.804;12.116;2022-11-20T00:42:29;5.90;99.90
25280;DHT22;13225;47.804;12.116;2022-11-20T00:44:56;5.90;99.90
25280;DHT22;13225;47.804;12.116;2022-11-20T00:47:21;5.80;99.90
25280;DHT22;13225;47.804;12.116;2022-11-20T00:49:47;5.80;99.90
25280;DHT22;13225;47.804;12.116;2022-11-20T00:52:12;5.80;99.90
25280;DHT22;13225;47.804;12.116;2022-11-20T00:54:38;5.80;99.90
25280;DHT22;13225;47.804;12.116;2022-11-20T00:57:03;5.90;99.90
25280;DHT22;13225;47.804;12.116;2022-11-20T00:59:29;5.90;99.90
25280;DHT22;13225;47.804;12.116;2022-11-20T01:01:55;6.10;99.90
25280;DHT22;13225;47.804;12.116;2022-11-20T01:04:20;6.20;99.90
25280;DHT22;13225;47.804;12.116;2022-11-20T01:06:47;6.30;99.90
25280;DHT22;13225;47.804;12.116;2022-11-20T01:09:14;6.30;99.90
25280;DHT22;13225;47.804;12.116;2022-11-20T01:11:41;6.40;99.90
25280;DHT22;13225;47.804;12.116;2022-11-20T01:14:17;6.40;99.90
25280;DHT22;13225;47.804;12.116;2022-11-20T01:16:47;6.50;99.90
25280;DHT22;13225;47.804;12.116;2022-11-20T01:19:21;6.60;99.90
25280;DHT22;13225;47.804;12.116;2022-11-20T01:21:51;6.60;99.90
25280;DHT22;13225;47.804;12.116;2022-11-20T01:24:18;6.60;99.90
25280;DHT22;13225;47.804;12.116;2022-11-20T01:26:46;6.60;99.90
25280;DHT22;13225;47.804;12.116;2022-11-20T01:29:18;6.60;99.90
25280;DHT22;13225;47.804;12.116;2022-11-20T01:31:44;6.60;99.90
25280;DHT22;13225;47.804;12.116;2022-11-20T01:34:12;6.50;99.90
25280;DHT22;13225;47.804;12.116;2022-11-20T01:36:39;6.60;99.90
25280;DHT22;13225;47.804;12.116;2022-11-20T01:39:15;6.60;99.90
25280;DHT22;13225;47.804;12.116;2022-11-20T01:41:43;6.60;99.90
25280;DHT22;13225;47.804;12.116;2022-11-20T01:44:51;6.60;99.90
25280;DHT22;13225;47.804;12.116;2022-11-20T01:47:37;6.60;99.90
25280;DHT22;13225;47.804;12.116;2022-11-20T01:50:16;6.60;99.90
25280;DHT22;13225;47.804;12.116;2022-11-20T01:52:52;6.60;99.90
25280;DHT22;13225;47.804;12.116;2022-11-20T01:55:23;6.60;99.90
25280;DHT22;13225;47.804;12.116;2022-11-20T01:57:51;6.60;99.90
25280;DHT22;13225;47.804;12.116;2022-11-20T02:00:18;6.60;99.90
25280;DHT22;13225;47.804;12.116;2022-11-20T02:03:00;6.60;99.90
25280;DHT22;13225;47.804;12.116;2022-11-20T02:05:38;6.60;99.90
25280;DHT22;13225;47.804;12.116;2022-11-20T02:08:05;6.50;99.90
25280;DHT22;13225;47.804;12.116;2022-11-20T02:10:32;6.50;99.90
25280;DHT22;13225;47.804;12.116;2022-11-20T02:12:58;6.50;99.90
25280;DHT22;13225;47.804;12.116;2022-11-20T02:15:43;6.50;99.90
25280;DHT22;13225;47.804;12.116;2022-11-20T02:18:10;6.50;99.90
25280;DHT22;13225;47.804;12.116;2022-11-20T02:20:36;6.50;99.90
25280;DHT22;13225;47.804;12.116;2022-11-20T02:25:55;6.40;99.90
25280;DHT22;13225;47.804;12.116;2022-11-20T02:28:21;6.40;99.90
25280;DHT22;13225;47.804;12.116;2022-11-20T02:30:47;6.40;99.90
25280;DHT22;13225;47.804;12.116;2022-11-20T02:33:12;6.40;99.90
25280;DHT22;13225;47.804;12.116;2022-11-20T02:35:43;6.50;99.90
25280;DHT22;13225;47.804;12.116;2022-11-20T02:38:10;6.50;99.90
25280;DHT22;13225;47.804;12.116;2022-11-20T02:40:35;6.50;99.90
25280;DHT22;13225;47.804;12.116;2022-11-20T02:43:01;6.50;99.90
25280;DHT22;13225;47.804;12.116;2022-11-20T02:45:27;6.40;99.90
25280;DHT22;13225;47.804;12.116;2022-11-20T02:47:52;6.40;99.90
25280;DHT22;13225;47.804;12.116;2022-11-20T02:50:18;6.50;99.90
25280;DHT22;13225;47.804;12.116;2022-11-20T02:52:44;6.50;99.90
25280;DHT22;13225;47.804;12.116;2022-11-20T02:55:13;6.50;99.90
25280;DHT22;13225;47.804;12.116;2022-11-20T02:57:38;6.50;99.90
25280;DHT22;13225;47.804;12.116;2022-11-20T03:00:05;6.50;99.90
25280;DHT22;13225;47.804;12.116;2022-11-20T03:02:32;6.60;99.90
25280;DHT22;13225;47.804;12.116;2022-11-20T03:05:00;6.60;99.90
25280;DHT22;13225;47.804;12.116;2022-11-20T03:07:25;6.60;99.90
25280;DHT22;13225;47.804;12.116;2022-11-20T03:09:51;6.60;99.90
25280;DHT22;13225;47.804;12.116;2022-11-20T03:12:17;6.60;99.90
25280;DHT22;13225;47.804;12.116;2022-11-20T03:14:42;6.60;99.90
25280;DHT22;13225;47.804;12.116;2022-11-20T03:17:08;6.60;99.90
25280;DHT22;13225;47.804;12.116;2022-11-20T03:19:34;6.60;99.90
25280;DHT22;13225;47.804;12.116;2022-11-20T03:22:00;6.60;99.90
25280;DHT22;13225;47.804;12.116;2022-11-20T03:24:26;6.50;99.90
25280;DHT22;13225;47.804;12.116;2022-11-20T03:26:52;6.50;99.90
25280;DHT22;13225;47.804;12.116;2022-11-20T03:29:17;6.50;99.90
25280;DHT22;13225;47.804;12.116;2022-11-20T03:31:43;6.50;99.90
25280;DHT22;13225;47.804;12.116;2022-11-20T03:34:10;6.50;99.90
25280;DHT22;13225;47.804;12.116;2022-11-20T03:36:38;6.50;99.90
25280;DHT22;13225;47.804;12.116;2022-11-20T03:39:04;6.50;99.90
25280;DHT22;13225;47.804;12.116;2022-11-20T03:41:31;6.50;99.90
25280;DHT22;13225;47.804;12.116;2022-11-20T03:43:59;6.50;99.90
25280;DHT22;13225;47.804;12.116;2022-11-20T03:46:25;6.50;99.90
25280;DHT22;13225;47.804;12.116;2022-11-20T03:48:52;6.50;99.90
25280;DHT22;13225;47.804;12.116;2022-11-20T03:51:29;6.50;99.90
25280;DHT22;13225;47.804;12.116;2022-11-20T03:53:57;6.60;99.90
25280;DHT22;13225;47.804;12.116;2022-11-20T03:56:25;6.50;99.90
25280;DHT22;13225;47.804;12.116;2022-11-20T03:58:51;6.50;99.90
25280;DHT22;13225;47.804;12.116;2022-11-20T04:01:23;6.50;99.90
25280;DHT22;13225;47.804;12.116;2022-11-20T04:03:49;6.50;99.90
25280;DHT22;13225;47.804;12.116;2022-11-20T04:06:18;6.40;99.90
25280;DHT22;13225;47.804;12.116;2022-11-20T04:08:45;6.40;99.90
25280;DHT22;13225;47.804;12.116;2022-11-20T04:11:16;6.30;99.90
25280;DHT22;13225;47.804;12.116;2022-11-20T04:13:45;6.40;99.90
25280;DHT22;13225;47.804;12.116;2022-11-20T04:16:11;6.40;99.90
25280;DHT22;13225;47.804;12.116;2022-11-20T04:18:37;6.30;99.90
25280;DHT22;13225;47.804;12.116;2022-11-20T04:21:04;6.30;99.90
25280;DHT22;13225;47.804;12.116;2022-11-20T04:23:30;6.40;99.90
25280;DHT22;13225;47.804;12.116;2022-11-20T04:26:08;6.30;99.90
25280;DHT22;13225;47.804;12.116;2022-11-20T04:28:34;6.30;99.90
25280;DHT22;13225;47.804;12.116;2022-11-20T04:31:15;6.30;99.90
25280;DHT22;13225;47.804;12.116;2022-11-20T04:33:41;6.30;99.90
25280;DHT22;13225;47.804;12.116;2022-11-20T04:36:18;6.20;99.90
25280;DHT22;13225;47.804;12.116;2022-11-20T04:38:44;6.20;99.90
25280;DHT22;13225;47.804;12.116;2022-11-20T04:41:15;6.20;99.90
25280;DHT22;13225;47.804;12.116;2022-11-20T04:43:41;6.10;99.90
25280;DHT22;13225;47.804;12.116;2022-11-20T04:46:07;6.10;99.90
25280;DHT22;13225;47.804;12.116;2022-11-20T04:48:32;6.10;99.90
25280;DHT22;13225;47.804;12.116;2022-11-20T04:51:03;6.20;99.90
25280;DHT22;13225;47.804;12.116;2022-11-20T04:53:29;6.20;99.90
25280;DHT22;13225;47.804;12.116;2022-11-20T04:56:07;6.30;99.90
25280;DHT22;13225;47.804;12.116;2022-11-20T04:58:33;6.30;99.90
25280;DHT22;13225;47.804;12.116;2022-11-20T05:01:07;6.30;99.90
25280;DHT22;13225;47.804;12.116;2022-11-20T05:03:33;6.40;99.90
25280;DHT22;13225;47.804;12.116;2022-11-20T05:06:03;6.40;99.90
25280;DHT22;13225;47.804;12.116;2022-11-20T05:08:30;6.30;99.90
25280;DHT22;13225;47.804;12.116;2022-11-20T05:11:42;6.40;99.90
25280;DHT22;13225;47.804;12.116;2022-11-20T05:13:50;6.40;99.90
25280;DHT22;13225;47.804;12.116;2022-11-20T05:16:18;6.40;99.90
25280;DHT22;13225;47.804;12.116;2022-11-20T05:18:45;6.30;99.90
25280;DHT22;13225;47.804;12.116;2022-11-20T05:21:12;6.30;99.90
25280;DHT22;13225;47.804;12.116;2022-11-20T05:23:38;6.30;99.90
25280;DHT22;13225;47.804;12.116;2022-11-20T05:26:07;6.30;99.90
25280;DHT22;13225;47.804;12.116;2022-11-20T05:28:34;6.30;99.90
25280;DHT22;13225;47.804;12.116;2022-11-20T05:31:07;6.20;99.90
25280;DHT22;13225;47.804;12.116;2022-11-20T05:33:34;6.20;99.90
25280;DHT22;13225;47.804;12.116;2022-11-20T05:36:01;6.20;99.90
25280;DHT22;13225;47.804;12.116;2022-11-20T05:38:26;6.10;99.90
25280;DHT22;13225;47.804;12.116;2022-11-20T05:40:52;6.00;99.90
25280;DHT22;13225;47.804;12.116;2022-11-20T05:43:27;6.00;99.90
25280;DHT22;13225;47.804;12.116;2022-11-20T05:45:55;6.10;99.90
25280;DHT22;13225;47.804;12.116;2022-11-20T05:48:21;6.10;99.90
25280;DHT22;13225;47.804;12.116;2022-11-20T05:50:47;6.20;99.90
25280;DHT22;13225;47.804;12.116;2022-11-20T05:53:13;6.20;99.90
25280;DHT22;13225;47.804;12.116;2022-11-20T05:55:39;6.30;99.90
25280;DHT22;13225;47.804;12.116;2022-11-20T05:58:04;6.20;99.90
25280;DHT22;13225;47.804;12.116;2022-11-20T06:00:30;6.10;99.90
25280;DHT22;13225;47.804;12.116;2022-11-20T06:02:55;6.10;99.90
25280;DHT22;13225;47.804;12.116;2022-11-20T06:05:21;6.00;99.90
25280;DHT22;13225;47.804;12.116;2022-11-20T06:07:48;6.00;99.90
25280;DHT22;13225;47.804;12.116;2022-11-20T06:10:13;5.90;99.90
25280;DHT22;13225;47.804;12.116;2022-11-20T06:12:39;5.90;99.90
25280;DHT22;13225;47.804;12.116;2022-11-20T06:15:05;6.00;99.90
25280;DHT22;13225;47.804;12.116;2022-11-20T06:17:30;6.00;99.90
25280;DHT22;13225;47.804;12.116;2022-11-20T06:19:56;6.20;99.90
25280;DHT22;13225;47.804;12.116;2022-11-20T06:22:22;6.20;99.90
25280;DHT22;13225;47.804;12.116;2022-11-20T06:24:47;6.20;99.90
25280;DHT22;13225;47.804;12.116;2022-11-20T06:27:13;6.20;99.90
25280;DHT22;13225;47.804;12.116;2022-11-20T06:29:38;6.30;99.90
25280;DHT22;13225;47.804;12.116;2022-11-20T06:32:04;6.30;99.90
25280;DHT22;13225;47.804;12.116;2022-11-20T06:34:30;6.30;99.90
25280;DHT22;13225;47.804;12.116;2022-11-20T06:36:55;6.20;99.90
25280;DHT22;13225;47.804;12.116;2022-11-20T06:39:21;6.30;99.90
25280;DHT22;13225;47.804;12.116;2022-11-20T06:41:46;6.40;99.90
25280;DHT22;13225;47.804;12.116;2022-11-20T06:44:12;6.40;99.90
25280;DHT22;13225;47.804;12.116;2022-11-20T06:46:37;6.40;99.90
25280;DHT22;13225;47.804;12.116;2022-11-20T06:49:03;6.50;99.90
25280;DHT22;13225;47.804;12.116;2022-11-20T06:51:28;6.50;99.90
25280;DHT22;13225;47.804;12.116;2022-11-20T06:54:00;6.50;99.90
25280;DHT22;13225;47.804;12.116;2022-11-20T06:56:26;6.50;99.90
25280;DHT22;13225;47.804;12.116;2022-11-20T06:58:52;6.50;99.90
25280;DHT22;13225;47.804;12.116;2022-11-20T07:01:17;6.50;99.90
25280;DHT22;13225;47.804;12.116;2022-11-20T07:03:43;6.50;99.90
25280;DHT22;13225;47.804;12.116;2022-11-20T07:06:09;6.50;99.90
25280;DHT22;13225;47.804;12.116;2022-11-20T07:08:34;6.50;99.90
25280;DHT22;13225;47.804;12.116;2022-11-20T07:11:05;6.50;99.90
25280;DHT22;13225;47.804;12.116;2022-11-20T07:13:31;6.50;99.90
25280;DHT22;13225;47.804;12.116;2022-11-20T07:16:05;6.50;99.90
25280;DHT22;13225;47.804;12.116;2022-11-20T07:18:31;6.50;99.90
25280;DHT22;13225;47.804;12.116;2022-11-20T07:21:02;6.50;99.90
25280;DHT22;13225;47.804;12.116;2022-11-20T07:23:27;6.40;99.90
25280;DHT22;13225;47.804;12.116;2022-11-20T07:25:53;6.40;99.90
25280;DHT22;13225;47.804;12.116;2022-11-20T07:28:23;6.40;99.90
25280;DHT22;13225;47.804;12.116;2022-11-20T07:30:52;6.40;99.90
25280;DHT22;13225;47.804;12.116;2022-11-20T07:33:18;6.30;99.90
25280;DHT22;13225;47.804;12.116;2022-11-20T07:35:44;6.40;99.90
25280;DHT22;13225;47.804;12.116;2022-11-20T07:38:10;6.40;99.90
25280;DHT22;13225;47.804;12.116;2022-11-20T07:40:35;6.40;99.90
25280;DHT22;13225;47.804;12.116;2022-11-20T07:43:01;6.40;99.90
25280;DHT22;13225;47.804;12.116;2022-11-20T07:45:27;6.40;99.90
25280;DHT22;13225;47.804;12.116;2022-11-20T07:47:54;6.50;99.90
25280;DHT22;13225;47.804;12.116;2022-11-20T07:50:20;6.40;99.90
25280;DHT22;13225;47.804;12.116;2022-11-20T07:52:50;6.40;99.90
25280;DHT22;13225;47.804;12.116;2022-11-20T07:55:16;6.40;99.90
25280;DHT22;13225;47.804;12.116;2022-11-20T07:57:41;6.30;99.90
25280;DHT22;13225;47.804;12.116;2022-11-20T08:00:09;6.30;99.90
25280;DHT22;13225;47.804;12.116;2022-11-20T08:02:39;6.30;99.90
25280;DHT22;13225;47.804;12.116;2022-11-20T08:05:06;6.30;99.90
25280;DHT22;13225;47.804;12.116;2022-11-20T08:07:39;6.30;99.90
25280;DHT22;13225;47.804;12.116;2022-11-20T08:10:06;6.30;99.90
25280;DHT22;13225;47.804;12.116;2022-11-20T08:12:33;6.30;99.90
25280;DHT22;13225;47.804;12.116;2022-11-20T08:15:17;6.30;99.90
25280;DHT22;13225;47.804;12.116;2022-11-20T08:17:42;6.20;99.90
25280;DHT22;13225;47.804;12.116;2022-11-20T08:20:09;6.20;99.90
25280;DHT22;13225;47.804;12.116;2022-11-20T08:22:36;6.20;99.90
25280;DHT22;13225;47.804;12.116;2022-11-20T08:25:02;6.20;99.90
25280;DHT22;13225;47.804;12.116;2022-11-20T08:27:28;6.20;99.90
25280;DHT22;13225;47.804;12.116;2022-11-20T08:29:54;6.40;99.90
25280;DHT22;13225;47.804;12.116;2022-11-20T08:32:19;6.60;99.90
25280;DHT22;13225;47.804;12.116;2022-11-20T08:34:45;6.60;99.90
25280;DHT22;13225;47.804;12.116;2022-11-20T08:37:11;6.90;99.90
25280;DHT22;13225;47.804;12.116;2022-11-20T08:39:37;7.00;99.90
25280;DHT22;13225;47.804;12.116;2022-11-20T08:42:07;7.00;99.90
25280;DHT22;13225;47.804;12.116;2022-11-20T08:44:35;7.00;99.90
25280;DHT22;13225;47.804;12.116;2022-11-20T08:47:01;7.00;99.90
25280;DHT22;13225;47.804;12.116;2022-11-20T08:49:26;7.10;99.90
25280;DHT22;13225;47.804;12.116;2022-11-20T08:51:52;7.20;99.90
25280;DHT22;13225;47.804;12.116;2022-11-20T08:54:20;7.40;99.90
25280;DHT22;13225;47.804;12.116;2022-11-20T08:56:47;7.70;99.90
25280;DHT22;13225;47.804;12.116;2022-11-20T08:59:13;7.90;99.90
25280;DHT22;13225;47.804;12.116;2022-11-20T09:01:38;8.10;99.90
25280;DHT22;13225;47.804;12.116;2022-11-20T09:04:04;8.30;99.90
25280;DHT22;13225;47.804;12.116;2022-11-20T09:06:30;8.50;99.90
25280;DHT22;13225;47.804;12.116;2022-11-20T09:08:57;8.60;99.90
25280;DHT22;13225;47.804;12.116;2022-11-20T09:11:22;8.50;99.90
25280;DHT22;13225;47.804;12.116;2022-11-20T09:13:49;8.40;99.90
25280;DHT22;13225;47.804;12.116;2022-11-20T09:16:14;8.40;99.90
25280;DHT22;13225;47.804;12.116;2022-11-20T09:18:40;8.40;99.90
25280;DHT22;13225;47.804;12.116;2022-11-20T09:21:10;8.40;99.90
25280;DHT22;13225;47.804;12.116;2022-11-20T09:23:37;8.40;99.90
25280;DHT22;13225;47.804;12.116;2022-11-20T09:26:11;8.40;99.90
25280;DHT22;13225;47.804;12.116;2022-11-20T09:28:37;8.50;99.90
25280;DHT22;13225;47.804;12.116;2022-11-20T09:31:07;8.70;99.90
25280;DHT22;13225;47.804;12.116;2022-11-20T09:33:33;8.80;99.90
25280;DHT22;13225;47.804;12.116;2022-11-20T09:35:59;8.80;99.90
25280;DHT22;13225;47.804;12.116;2022-11-20T09:38:24;8.70;99.90
25280;DHT22;13225;47.804;12.116;2022-11-20T09:40:58;8.60;99.90
25280;DHT22;13225;47.804;12.116;2022-11-20T09:54:25;8.80;99.90
25280;DHT22;13225;47.804;12.116;2022-11-20T09:57:00;8.80;99.90
25280;DHT22;13225;47.804;12.116;2022-11-20T09:59:33;8.80;99.90
25280;DHT22;13225;47.804;12.116;2022-11-20T10:02:03;8.80;99.90
25280;DHT22;13225;47.804;12.116;2022-11-20T10:04:33;8.90;99.90
25280;DHT22;13225;47.804;12.116;2022-11-20T10:07:07;8.80;99.90
25280;DHT22;13225;47.804;12.116;2022-11-20T10:09:39;8.70;99.90
25280;DHT22;13225;47.804;12.116;2022-11-20T10:12:12;8.70;99.90
25280;DHT22;13225;47.804;12.116;2022-11-20T10:15:01;8.70;99.90
25280;DHT22;13225;47.804;12.116;2022-11-20T10:21:03;8.80;99.90
25280;DHT22;13225;47.804;12.116;2022-11-20T10:23:54;8.90;99.90
25280;DHT22;13225;47.804;12.116;2022-11-20T10:26:38;8.90;99.90
25280;DHT22;13225;47.804;12.116;2022-11-20T10:32:11;9.20;99.90
25280;DHT22;13225;47.804;12.116;2022-11-20T10:35:05;9.40;99.90
25280;DHT22;13225;47.804;12.116;2022-11-20T10:37:35;9.50;99.90
25280;DHT22;13225;47.804;12.116;2022-11-20T10:42:54;9.50;99.90
25280;DHT22;13225;47.804;12.116;2022-11-20T10:47:55;9.60;99.90
25280;DHT22;13225;47.804;12.116;2022-11-20T10:50:22;9.50;99.90
25280;DHT22;13225;47.804;12.116;2022-11-20T10:53:10;9.60;99.90
25280;DHT22;13225;47.804;12.116;2022-11-20T10:55:42;9.70;99.90
25280;DHT22;13225;47.804;12.116;2022-11-20T11:00:50;9.70;99.90
25280;DHT22;13225;47.804;12.116;2022-11-20T11:03:27;9.80;99.90
25280;DHT22;13225;47.804;12.116;2022-11-20T11:06:19;9.70;99.90
25280;DHT22;13225;47.804;12.116;2022-11-20T11:08:47;9.80;99.90
25280;DHT22;13225;47.804;12.116;2022-11-20T11:11:21;9.90;99.90
25280;DHT22;13225;47.804;12.116;2022-11-20T11:13:48;9.70;99.90
25280;DHT22;13225;47.804;12.116;2022-11-20T11:16:25;9.80;99.90
25280;DHT22;13225;47.804;12.116;2022-11-20T11:18:52;9.90;99.90
25280;DHT22;13225;47.804;12.116;2022-11-20T11:21:28;9.80;99.90
25280;DHT22;13225;47.804;12.116;2022-11-20T11:24:02;9.90;99.90
25280;DHT22;13225;47.804;12.116;2022-11-20T11:26:28;10.00;99.90
25280;DHT22;13225;47.804;12.116;2022-11-20T11:28:58;10.20;99.90
25280;DHT22;13225;47.804;12.116;2022-11-20T11:31:31;10.20;99.90
25280;DHT22;13225;47.804;12.116;2022-11-20T11:34:11;10.10;99.90
25280;DHT22;13225;47.804;12.116;2022-11-20T11:36:37;10.10;99.90
25280;DHT22;13225;47.804;12.116;2022-11-20T11:39:04;10.20;99.90
25280;DHT22;13225;47.804;12.116;2022-11-20T11:41:34;10.20;99.90
25280;DHT22;13225;47.804;12.116;2022-11-20T11:44:19;10.30;99.90
25280;DHT22;13225;47.804;12.116;2022-11-20T11:47:08;10.10;99.90
25280;DHT22;13225;47.804;12.116;2022-11-20T11:49:36;10.00;99.90
25280;DHT22;13225;47.804;12.116;2022-11-20T11:54:52;10.00;99.90
25280;DHT22;13225;47.804;12.116;2022-11-20T11:57:40;9.90;99.90
25280;DHT22;13225;47.804;12.116;2022-11-20T12:00:14;10.00;99.90
25280;DHT22;13225;47.804;12.116;2022-11-20T12:05:19;10.20;99.90
25280;DHT22;13225;47.804;12.116;2022-11-20T12:13:26;11.00;99.90
25280;DHT22;13225;47.804;12.116;2022-11-20T12:15:56;10.80;99.90
25280;DHT22;13225;47.804;12.116;2022-11-20T12:18:22;10.70;99.90
25280;DHT22;13225;47.804;12.116;2022-11-20T12:21:36;10.60;99.90
25280;DHT22;13225;47.804;12.116;2022-11-20T12:27:05;10.00;99.90
25280;DHT22;13225;47.804;12.116;2022-11-20T12:41:05;9.80;99.90
25280;DHT22;13225;47.804;12.116;2022-11-20T12:50:08;10.40;99.90
25280;DHT22;13225;47.804;12.116;2022-11-20T12:53:07;10.60;99.90
25280;DHT22;13225;47.804;12.116;2022-11-20T13:07:07;10.70;99.90
25280;DHT22;13225;47.804;12.116;2022-11-20T13:09:36;10.70;99.90
25280;DHT22;13225;47.804;12.116;2022-11-20T13:17:28;10.70;99.90
25280;DHT22;13225;47.804;12.116;2022-11-20T13:19:57;10.60;99.90
25280;DHT22;13225;47.804;12.116;2022-11-20T13:22:46;10.40;99.90
25280;DHT22;13225;47.804;12.116;2022-11-20T13:25:35;10.20;99.90
25280;DHT22;13225;47.804;12.116;2022-11-20T13:30:52;10.10;99.90
25280;DHT22;13225;47.804;12.116;2022-11-20T13:33:36;10.10;99.90
25280;DHT22;13225;47.804;12.116;2022-11-20T13:36:20;10.10;99.90
25280;DHT22;13225;47.804;12.116;2022-11-20T13:38:46;10.00;99.90
25280;DHT22;13225;47.804;12.116;2022-11-20T13:41:29;9.90;99.90
25280;DHT22;13225;47.804;12.116;2022-11-20T13:44:15;9.80;99.90
25280;DHT22;13225;47.804;12.116;2022-11-20T13:46:47;9.80;99.90
25280;DHT22;13225;47.804;12.116;2022-11-20T13:54:59;9.60;99.90
25280;DHT22;13225;47.804;12.116;2022-11-20T14:00:22;9.50;99.90
25280;DHT22;13225;47.804;12.116;2022-11-20T14:03:02;9.40;99.90
25280;DHT22;13225;47.804;12.116;2022-11-20T14:05:38;9.40;99.90
25280;DHT22;13225;47.804;12.116;2022-11-20T14:08:09;9.50;99.90
25280;DHT22;13225;47.804;12.116;2022-11-20T14:10:38;9.40;99.90
25280;DHT22;13225;47.804;12.116;2022-11-20T14:13:31;9.20;99.90
25280;DHT22;13225;47.804;12.116;2022-11-20T14:15:57;9.00;99.90
25280;DHT22;13225;47.804;12.116;2022-11-20T14:18:28;8.80;99.90
25280;DHT22;13225;47.804;12.116;2022-11-20T14:20:54;8.60;99.90
25280;DHT22;13225;47.804;12.116;2022-11-20T14:23:29;8.60;99.90
25280;DHT22;13225;47.804;12.116;2022-11-20T14:25:56;8.60;99.90
25280;DHT22;13225;47.804;12.116;2022-11-20T14:28:27;8.60;99.90
25280;DHT22;13225;47.804;12.116;2022-11-20T14:30:54;8.50;99.90
25280;DHT22;13225;47.804;12.116;2022-11-20T14:33:22;8.40;99.90
25280;DHT22;13225;47.804;12.116;2022-11-20T14:35:57;8.40;99.90
25280;DHT22;13225;47.804;12.116;2022-11-20T14:38:31;8.40;99.90
25280;DHT22;13225;47.804;12.116;2022-11-20T14:41:08;8.30;99.90
25280;DHT22;13225;47.804;12.116;2022-11-20T14:43:34;8.30;99.90
25280;DHT22;13225;47.804;12.116;2022-11-20T14:46:08;8.20;99.90
25280;DHT22;13225;47.804;12.116;2022-11-20T14:48:39;8.20;99.90
25280;DHT22;13225;47.804;12.116;2022-11-20T14:51:09;8.10;99.90
25280;DHT22;13225;47.804;12.116;2022-11-20T14:53:37;8.00;99.90
25280;DHT22;13225;47.804;12.116;2022-11-20T14:56:03;7.90;99.90
25280;DHT22;13225;47.804;12.116;2022-11-20T14:58:33;7.80;99.90
25280;DHT22;13225;47.804;12.116;2022-11-20T15:01:02;7.80;99.90
25280;DHT22;13225;47.804;12.116;2022-11-20T15:03:33;7.70;99.90
25280;DHT22;13225;47.804;12.116;2022-11-20T15:05:59;7.80;99.90
25280;DHT22;13225;47.804;12.116;2022-11-20T15:08:25;7.70;99.90
25280;DHT22;13225;47.804;12.116;2022-11-20T15:10:52;7.70;99.90
25280;DHT22;13225;47.804;12.116;2022-11-20T15:13:38;7.70;99.90
25280;DHT22;13225;47.804;12.116;2022-11-20T15:16:13;7.60;99.90
25280;DHT22;13225;47.804;12.116;2022-11-20T15:18:41;7.70;99.90
25280;DHT22;13225;47.804;12.116;2022-11-20T15:21:12;7.70;99.90
25280;DHT22;13225;47.804;12.116;2022-11-20T15:23:39;7.70;99.90
25280;DHT22;13225;47.804;12.116;2022-11-20T15:26:05;7.70;99.90
25280;DHT22;13225;47.804;12.116;2022-11-20T15:28:36;7.60;99.90
25280;DHT22;13225;47.804;12.116;2022-11-20T15:31:03;7.60;99.90
25280;DHT22;13225;47.804;12.116;2022-11-20T15:33:30;7.50;99.90
25280;DHT22;13225;47.804;12.116;2022-11-20T15:35:56;7.50;99.90
25280;DHT22;13225;47.804;12.116;2022-11-20T15:38:24;7.40;99.90
25280;DHT22;13225;47.804;12.116;2022-11-20T15:40:50;7.40;99.90
25280;DHT22;13225;47.804;12.116;2022-11-20T15:43:15;7.30;99.90
25280;DHT22;13225;47.804;12.116;2022-11-20T15:46:00;7.30;99.90
25280;DHT22;13225;47.804;12.116;2022-11-20T15:48:29;7.30;99.90
25280;DHT22;13225;47.804;12.116;2022-11-20T15:50:57;7.20;99.90
25280;DHT22;13225;47.804;12.116;2022-11-20T15:53:24;7.10;99.90
25280;DHT22;13225;47.804;12.116;2022-11-20T15:55:50;7.10;99.90
25280;DHT22;13225;47.804;12.116;2022-11-20T15:58:15;7.20;99.90
25280;DHT22;13225;47.804;12.116;2022-11-20T16:00:42;7.20;99.90
25280;DHT22;13225;47.804;12.116;2022-11-20T16:03:15;7.20;99.90
25280;DHT22;13225;47.804;12.116;2022-11-20T16:05:41;7.20;99.90
25280;DHT22;13225;47.804;12.116;2022-11-20T16:08:06;7.10;99.90
25280;DHT22;13225;47.804;12.116;2022-11-20T16:10:32;7.00;99.90
25280;DHT22;13225;47.804;12.116;2022-11-20T16:12:58;7.00;99.90
25280;DHT22;13225;47.804;12.116;2022-11-20T16:15:43;7.00;99.90
25280;DHT22;13225;47.804;12.116;2022-11-20T16:18:17;6.90;99.90
25280;DHT22;13225;47.804;12.116;2022-11-20T16:20:53;6.90;99.90
25280;DHT22;13225;47.804;12.116;2022-11-20T16:23:20;6.80;99.90
25280;DHT22;13225;47.804;12.116;2022-11-20T16:25:46;6.80;99.90
25280;DHT22;13225;47.804;12.116;2022-11-20T16:28:12;6.90;99.90
25280;DHT22;13225;47.804;12.116;2022-11-20T16:30:39;6.80;99.90
25280;DHT22;13225;47.804;12.116;2022-11-20T16:33:10;6.80;99.90
25280;DHT22;13225;47.804;12.116;2022-11-20T16:35:37;6.80;99.90
25280;DHT22;13225;47.804;12.116;2022-11-20T16:38:03;6.80;99.90
25280;DHT22;13225;47.804;12.116;2022-11-20T16:40:29;6.80;99.90
25280;DHT22;13225;47.804;12.116;2022-11-20T16:42:54;6.80;99.90
25280;DHT22;13225;47.804;12.116;2022-11-20T16:45:23;6.80;99.90
25280;DHT22;13225;47.804;12.116;2022-11-20T16:47:49;6.80;99.90
25280;DHT22;13225;47.804;12.116;2022-11-20T16:50:14;6.70;99.90
25280;DHT22;13225;47.804;12.116;2022-11-20T16:52:40;6.60;99.90
25280;DHT22;13225;47.804;12.116;2022-11-20T16:55:06;6.60;99.90
25280;DHT22;13225;47.804;12.116;2022-11-20T16:57:32;6.60;99.90
25280;DHT22;13225;47.804;12.116;2022-11-20T16:59:58;6.60;99.90
25280;DHT22;13225;47.804;12.116;2022-11-20T17:02:25;6.50;99.90
25280;DHT22;13225;47.804;12.116;2022-11-20T17:04:52;6.40;99.90
25280;DHT22;13225;47.804;12.116;2022-11-20T17:07:18;6.50;99.90
25280;DHT22;13225;47.804;12.116;2022-11-20T17:09:44;6.40;99.90
25280;DHT22;13225;47.804;12.116;2022-11-20T17:12:11;6.30;99.90